createdAt,value
2019-01-29T00:02:15.063Z,21.97
2019-01-29T00:04:43.445Z,22.07
2019-01-29T00:07:11.809Z,15.90
2019-01-29T00:09:40.212Z,15.23
2019-01-29T00:12:08.554Z,16.00
2019-01-29T00:14:36.926Z,18.10
2019-01-29T00:17:05.307Z,22.50
2019-01-29T00:19:33.657Z,18.98
2019-01-29T00:22:02.057Z,20.05
2019-01-29T00:24:30.443Z,29.05
2019-01-29T00:26:58.826Z,31.48
2019-01-29T00:29:27.218Z,32.90
2019-01-29T00:31:55.611Z,33.60
2019-01-29T00:34:24.983Z,63.42
2019-01-29T00:36:53.302Z,34.83
2019-01-29T00:39:21.639Z,25.57
2019-01-29T00:41:50.039Z,24.00
2019-01-29T00:44:18.378Z,24.12
2019-01-29T00:46:46.692Z,40.23
2019-01-29T00:49:15.123Z,36.90
2019-01-29T00:51:43.537Z,35.88
2019-01-29T00:54:11.922Z,26.70
2019-01-29T00:56:40.309Z,19.92
2019-01-29T00:59:08.706Z,20.80
2019-01-29T01:01:36.994Z,16.70
2019-01-29T01:04:05.383Z,25.70
2019-01-29T01:06:33.755Z,34.35
2019-01-29T01:09:02.075Z,24.43
2019-01-29T01:11:31.611Z,23.00
2019-01-29T01:13:59.951Z,19.10
2019-01-29T01:16:28.319Z,17.40
2019-01-29T01:18:56.709Z,17.87
2019-01-29T01:21:25.002Z,15.23
2019-01-29T01:23:53.362Z,15.98
2019-01-29T01:26:21.763Z,15.03
2019-01-29T01:28:51.070Z,13.50
2019-01-29T01:31:19.391Z,12.13
2019-01-29T01:33:47.811Z,13.60
2019-01-29T01:36:16.200Z,12.18
2019-01-29T01:38:44.584Z,15.48
2019-01-29T01:41:12.983Z,10.05
2019-01-29T01:43:41.330Z,12.03
2019-01-29T01:46:09.651Z,15.20
2019-01-29T01:48:38.035Z,19.50
2019-01-29T01:51:07.889Z,17.25
2019-01-29T01:53:36.219Z,14.68
2019-01-29T01:56:04.541Z,14.33
2019-01-29T01:58:32.874Z,12.60
2019-01-29T02:01:01.182Z,11.57
2019-01-29T02:03:29.514Z,15.18
2019-01-29T02:05:57.906Z,10.80
2019-01-29T02:08:26.267Z,14.98
2019-01-29T02:10:54.601Z,11.38
2019-01-29T02:13:23.045Z,14.40
2019-01-29T02:15:51.382Z,12.70
2019-01-29T02:18:19.687Z,14.40
2019-01-29T02:20:48.027Z,15.90
2019-01-29T02:23:16.862Z,14.35
2019-01-29T02:25:45.199Z,12.95
2019-01-29T02:28:13.611Z,15.93
2019-01-29T02:30:41.932Z,10.00
2019-01-29T02:33:10.273Z,14.23
2019-01-29T02:35:38.619Z,8.78
2019-01-29T02:38:06.959Z,11.20
2019-01-29T02:40:35.477Z,8.23
2019-01-29T02:43:03.900Z,13.05
2019-01-29T02:45:33.329Z,10.50
2019-01-29T02:48:01.686Z,6.78
2019-01-29T02:50:30.140Z,9.35
2019-01-29T02:52:58.549Z,14.30
2019-01-29T02:55:26.908Z,11.80
2019-01-29T02:57:55.649Z,11.30
2019-01-29T03:00:38.665Z,18.17
2019-01-29T03:03:07.046Z,10.20
2019-01-29T03:05:35.388Z,13.32
2019-01-29T03:08:04.245Z,17.73
2019-01-29T03:10:32.575Z,13.35
2019-01-29T03:13:03.599Z,14.98
2019-01-29T03:15:32.097Z,15.28
2019-01-29T03:18:00.420Z,9.10
2019-01-29T03:20:28.753Z,15.65
2019-01-29T03:22:59.058Z,14.07
2019-01-29T03:25:29.110Z,17.65
2019-01-29T03:27:59.030Z,13.55
2019-01-29T03:30:27.368Z,13.35
2019-01-29T03:32:55.717Z,10.45
2019-01-29T03:35:24.033Z,14.58
2019-01-29T03:37:52.378Z,16.17
2019-01-29T03:40:21.786Z,14.70
2019-01-29T03:42:51.131Z,11.63
2019-01-29T03:45:21.028Z,11.50
2019-01-29T03:47:50.362Z,15.25
2019-01-29T03:50:19.500Z,11.40
2019-01-29T03:52:47.802Z,14.23
2019-01-29T03:55:17.125Z,10.97
2019-01-29T03:57:45.495Z,10.60
2019-01-29T04:00:15.076Z,9.50
2019-01-29T04:02:43.394Z,15.18
2019-01-29T04:05:11.729Z,16.12
2019-01-29T04:07:41.043Z,11.70
2019-01-29T04:10:10.905Z,14.60
2019-01-29T04:12:40.963Z,11.25
2019-01-29T04:15:10.469Z,13.38
2019-01-29T04:17:41.858Z,15.03
2019-01-29T04:20:11.731Z,13.53
2019-01-29T04:22:40.157Z,16.85
2019-01-29T04:25:08.555Z,13.10
2019-01-29T04:27:36.908Z,9.23
2019-01-29T04:30:07.822Z,12.43
2019-01-29T04:32:36.331Z,20.27
2019-01-29T04:35:05.281Z,16.00
2019-01-29T04:37:33.641Z,10.88
2019-01-29T04:40:01.982Z,17.57
2019-01-29T04:42:30.729Z,12.18
2019-01-29T04:44:59.021Z,12.58
2019-01-29T04:47:27.389Z,20.35
2019-01-29T04:49:55.685Z,14.43
2019-01-29T04:52:24.644Z,10.98
2019-01-29T04:54:53.974Z,10.35
2019-01-29T04:57:22.352Z,17.57
2019-01-29T04:59:52.478Z,13.93
2019-01-29T05:02:20.810Z,12.35
2019-01-29T05:04:49.139Z,12.03
2019-01-29T05:07:17.462Z,15.32
2019-01-29T05:09:45.781Z,18.10
2019-01-29T05:12:14.110Z,12.07
2019-01-29T05:14:42.446Z,15.43
2019-01-29T05:17:10.736Z,13.48
2019-01-29T05:19:39.081Z,10.90
2019-01-29T05:22:07.393Z,14.40
2019-01-29T05:24:35.700Z,15.90
2019-01-29T05:27:04.067Z,13.90
2019-01-29T05:29:32.391Z,16.30
2019-01-29T05:32:00.698Z,14.38
2019-01-29T05:34:29.048Z,17.67
2019-01-29T05:36:57.390Z,24.05
2019-01-29T05:39:25.725Z,28.27
2019-01-29T05:41:54.085Z,23.87
2019-01-29T05:44:22.400Z,22.42
2019-01-29T05:46:50.769Z,19.17
2019-01-29T05:49:19.074Z,11.03
2019-01-29T05:51:47.622Z,18.20
2019-01-29T05:54:16.682Z,19.23
2019-01-29T05:56:45.077Z,23.80
2019-01-29T05:59:13.396Z,18.35
2019-01-29T06:01:41.731Z,18.92
2019-01-29T06:04:10.060Z,17.32
2019-01-29T06:06:38.369Z,14.55
2019-01-29T06:09:08.424Z,16.02
2019-01-29T06:11:36.860Z,13.80
2019-01-29T06:14:05.168Z,19.67
2019-01-29T06:16:34.387Z,20.48
2019-01-29T06:19:02.685Z,27.95
2019-01-29T06:21:31.035Z,24.57
2019-01-29T06:23:59.351Z,27.60
2019-01-29T06:26:27.714Z,30.45
2019-01-29T06:28:56.049Z,34.03
2019-01-29T06:31:24.353Z,25.90
2019-01-29T06:33:52.691Z,21.77
2019-01-29T06:36:21.036Z,21.60
2019-01-29T06:38:49.401Z,14.43
2019-01-29T06:41:17.735Z,17.82
2019-01-29T06:43:46.074Z,14.43
2019-01-29T06:46:14.390Z,23.05
2019-01-29T06:48:42.743Z,16.27
2019-01-29T06:51:11.099Z,16.10
2019-01-29T06:53:39.440Z,18.98
2019-01-29T06:56:07.781Z,16.23
2019-01-29T06:58:36.117Z,19.67
2019-01-29T07:01:04.434Z,19.35
2019-01-29T07:03:32.784Z,20.90
2019-01-29T07:06:01.120Z,20.00
2019-01-29T07:08:29.484Z,18.40
2019-01-29T07:10:57.814Z,23.12
2019-01-29T07:13:27.156Z,22.95
2019-01-29T07:16:06.153Z,28.45
2019-01-29T07:18:36.067Z,15.88
2019-01-29T07:21:06.050Z,17.73
2019-01-29T07:23:35.842Z,15.83
2019-01-29T07:26:04.246Z,24.37
2019-01-29T07:28:32.590Z,15.23
2019-01-29T07:31:00.948Z,17.42
2019-01-29T07:33:29.257Z,13.50
2019-01-29T07:35:57.634Z,17.82
2019-01-29T07:38:26.941Z,18.32
2019-01-29T07:40:55.279Z,12.13
2019-01-29T07:43:23.581Z,19.23
2019-01-29T07:45:51.915Z,17.50
2019-01-29T07:48:20.280Z,12.60
2019-01-29T07:50:48.657Z,19.98
2019-01-29T07:53:17.072Z,11.20
2019-01-29T07:55:45.391Z,11.88
2019-01-29T07:58:13.733Z,14.83
2019-01-29T08:00:42.310Z,9.50
2019-01-29T08:03:10.671Z,16.48
2019-01-29T08:05:39.131Z,12.47
2019-01-29T08:08:07.441Z,12.58
2019-01-29T08:10:35.791Z,15.35
2019-01-29T08:13:04.176Z,15.15
2019-01-29T08:15:32.542Z,7.67
2019-01-29T08:18:00.930Z,11.83
2019-01-29T08:20:29.297Z,14.60
2019-01-29T08:22:57.542Z,15.35
2019-01-29T08:25:25.890Z,17.02
2019-01-29T08:27:54.207Z,12.50
2019-01-29T08:30:22.509Z,11.45
2019-01-29T08:32:52.523Z,14.83
2019-01-29T08:35:20.832Z,12.50
2019-01-29T08:37:49.177Z,13.70
2019-01-29T08:40:17.533Z,15.03
2019-01-29T08:42:45.850Z,18.15
2019-01-29T08:45:15.205Z,17.00
2019-01-29T08:47:43.529Z,16.02
2019-01-29T08:50:19.054Z,18.43
2019-01-29T08:52:47.416Z,14.75
2019-01-29T08:55:15.719Z,17.30
2019-01-29T08:57:44.061Z,15.28
2019-01-29T09:00:18.127Z,13.80
2019-01-29T09:02:47.871Z,13.55
2019-01-29T09:05:16.393Z,11.78
2019-01-29T09:07:44.679Z,14.43
2019-01-29T09:10:14.577Z,13.03
2019-01-29T09:12:42.892Z,10.38
2019-01-29T09:15:12.444Z,13.10
2019-01-29T09:17:40.747Z,17.70
2019-01-29T09:20:10.785Z,14.38
2019-01-29T09:22:39.171Z,16.40
2019-01-29T09:25:09.025Z,20.82
2019-01-29T09:27:39.384Z,17.70
2019-01-29T09:30:09.438Z,15.43
2019-01-29T09:32:38.792Z,18.32
2019-01-29T09:35:07.097Z,18.30
2019-01-29T09:37:35.448Z,19.70
2019-01-29T09:40:04.690Z,15.10
2019-01-29T09:42:33.021Z,17.80
2019-01-29T09:45:02.499Z,12.70
2019-01-29T09:47:32.041Z,11.65
2019-01-29T09:50:00.356Z,20.92
2019-01-29T09:52:28.967Z,10.88
2019-01-29T09:54:57.273Z,14.05
2019-01-29T09:57:25.617Z,15.68
2019-01-29T09:59:53.920Z,9.90
2019-01-29T10:02:22.275Z,10.85
2019-01-29T10:04:50.611Z,12.80
2019-01-29T10:07:18.956Z,8.68
2019-01-29T10:09:47.314Z,15.55
2019-01-29T10:12:15.654Z,15.65
2019-01-29T10:14:43.963Z,14.43
2019-01-29T10:17:12.393Z,14.30
2019-01-29T10:19:40.757Z,12.35
2019-01-29T10:22:10.434Z,13.65
2019-01-29T10:24:38.778Z,14.60
2019-01-29T10:27:07.130Z,16.17
2019-01-29T10:29:35.455Z,17.75
2019-01-29T10:32:03.793Z,14.10
2019-01-29T10:34:32.125Z,17.10
2019-01-29T10:37:00.463Z,18.27
2019-01-29T10:39:28.820Z,18.50
2019-01-29T10:41:57.130Z,15.85
2019-01-29T10:44:26.262Z,13.00
2019-01-29T10:46:54.612Z,13.22
2019-01-29T10:49:22.915Z,12.18
2019-01-29T10:51:51.263Z,14.68
2019-01-29T10:54:20.292Z,13.43
2019-01-29T10:56:48.682Z,11.63
2019-01-29T10:59:17.006Z,11.73
2019-01-29T11:01:45.357Z,14.63
2019-01-29T11:04:14.479Z,10.72
2019-01-29T11:06:43.824Z,13.88
2019-01-29T11:09:12.149Z,13.95
2019-01-29T11:11:40.787Z,15.55
2019-01-29T11:14:10.131Z,17.90
2019-01-29T11:16:39.503Z,16.97
2019-01-29T11:19:07.812Z,13.05
2019-01-29T11:21:36.150Z,9.78
2019-01-29T11:24:04.581Z,10.53
2019-01-29T11:26:32.890Z,11.35
2019-01-29T11:29:01.212Z,9.58
2019-01-29T11:31:29.855Z,10.65
2019-01-29T11:33:58.165Z,10.50
2019-01-29T11:36:26.486Z,8.33
2019-01-29T11:38:54.831Z,9.50
2019-01-29T11:41:23.166Z,8.20
2019-01-29T11:43:51.486Z,7.20
2019-01-29T11:46:19.817Z,9.30
2019-01-29T11:48:48.129Z,7.67
2019-01-29T11:51:16.739Z,8.70
2019-01-29T11:53:45.063Z,8.05
2019-01-29T11:56:13.387Z,6.55
2019-01-29T11:58:41.730Z,8.55
2019-01-29T12:01:10.066Z,8.28
2019-01-29T12:03:38.430Z,7.53
2019-01-29T12:06:06.759Z,10.20
2019-01-29T12:08:35.097Z,6.67
2019-01-29T12:11:03.457Z,5.67
2019-01-29T12:13:31.915Z,6.95
2019-01-29T12:16:00.270Z,5.33
2019-01-29T12:18:29.498Z,8.10
2019-01-29T12:20:57.841Z,9.28
2019-01-29T12:23:26.166Z,7.87
2019-01-29T12:25:54.514Z,10.03
2019-01-29T12:28:22.860Z,8.35
2019-01-29T12:30:52.174Z,8.65
2019-01-29T12:33:20.799Z,9.38
2019-01-29T12:35:49.163Z,9.90
2019-01-29T12:38:17.516Z,8.23
2019-01-29T12:40:45.841Z,8.28
2019-01-29T12:43:14.175Z,7.92
2019-01-29T12:45:42.520Z,7.37
2019-01-29T12:48:10.844Z,7.20
2019-01-29T12:50:40.726Z,7.25
2019-01-29T12:53:13.387Z,6.55
2019-01-29T12:55:41.703Z,10.63
2019-01-29T12:58:10.415Z,8.00
2019-01-29T13:00:43.030Z,7.78
2019-01-29T13:03:11.422Z,8.33
2019-01-29T13:05:39.754Z,11.48
2019-01-29T13:08:11.570Z,7.87
2019-01-29T13:10:39.884Z,6.15
2019-01-29T13:13:08.191Z,9.03
2019-01-29T13:15:36.539Z,7.65
2019-01-29T13:18:04.836Z,8.05
2019-01-29T13:20:33.134Z,9.73
2019-01-29T13:23:01.488Z,9.60
2019-01-29T13:25:29.794Z,11.78
2019-01-29T13:27:59.551Z,13.03
2019-01-29T13:30:34.673Z,9.95
2019-01-29T13:33:03.478Z,12.10
2019-01-29T13:35:32.695Z,18.12
2019-01-29T13:38:01.045Z,31.33
2019-01-29T13:40:30.725Z,22.77
2019-01-29T13:42:59.061Z,34.80
2019-01-29T13:45:27.406Z,12.45
2019-01-29T13:47:55.736Z,13.45
2019-01-29T13:50:34.721Z,12.13
2019-01-29T13:53:03.031Z,15.30
2019-01-29T13:55:31.370Z,16.82
2019-01-29T13:57:59.713Z,9.85
2019-01-29T14:00:36.582Z,18.82
2019-01-29T14:03:05.708Z,22.60
2019-01-29T14:05:34.033Z,18.37
2019-01-29T14:08:02.383Z,20.15
2019-01-29T14:10:30.734Z,22.27
2019-01-29T14:12:59.040Z,16.37
2019-01-29T14:15:37.936Z,12.88
2019-01-29T14:18:07.134Z,13.22
2019-01-29T14:20:35.474Z,8.93
2019-01-29T14:23:03.805Z,7.37
2019-01-29T14:25:32.120Z,10.15
2019-01-29T14:31:45.795Z,6.90
2019-01-29T14:34:14.139Z,8.55
2019-01-29T14:36:42.466Z,8.85
2019-01-29T14:39:12.357Z,8.75
2019-01-29T14:41:40.684Z,10.20
2019-01-29T14:44:09.169Z,11.43
2019-01-29T14:46:37.479Z,11.30
2019-01-29T14:49:05.811Z,9.30
2019-01-29T14:51:34.137Z,11.03
2019-01-29T14:54:02.468Z,9.58
2019-01-29T14:56:30.776Z,12.55
2019-01-29T14:58:59.122Z,10.70
2019-01-29T15:01:27.492Z,10.85
2019-01-29T15:03:55.839Z,12.53
2019-01-29T15:06:32.285Z,12.98
2019-01-29T15:08:54.216Z,14.45
2019-01-29T15:11:22.561Z,17.60
2019-01-29T15:13:50.913Z,14.03
2019-01-29T15:16:23.749Z,16.45
2019-01-29T15:18:53.634Z,15.70
2019-01-29T15:21:21.983Z,14.23
2019-01-29T15:23:50.315Z,16.27
2019-01-29T15:26:18.663Z,11.30
2019-01-29T15:28:47.025Z,7.67
2019-01-29T15:31:15.333Z,7.80
2019-01-29T15:33:43.663Z,6.70
2019-01-29T15:36:12.015Z,5.62
2019-01-29T15:38:40.337Z,5.00
2019-01-29T15:41:08.670Z,5.55
2019-01-29T15:43:36.997Z,5.70
2019-01-29T15:46:06.396Z,5.65
2019-01-29T15:48:34.704Z,9.20
2019-01-29T15:51:03.043Z,7.00
2019-01-29T15:53:31.400Z,8.40
2019-01-29T15:55:59.733Z,11.33
2019-01-29T15:58:28.065Z,9.98
2019-01-29T16:00:56.390Z,14.40
2019-01-29T16:03:25.216Z,22.67
2019-01-29T16:05:53.613Z,14.70
2019-01-29T16:08:22.329Z,11.40
2019-01-29T16:10:51.725Z,12.50
2019-01-29T16:13:21.205Z,21.52
2019-01-29T16:15:49.514Z,16.82
2019-01-29T16:18:17.894Z,13.62
2019-01-29T16:20:46.283Z,25.90
2019-01-29T16:23:14.609Z,9.73
2019-01-29T16:25:43.664Z,13.13
2019-01-29T16:28:12.495Z,7.70
2019-01-29T16:30:41.955Z,6.78
2019-01-29T16:33:11.848Z,6.75
2019-01-29T16:35:42.904Z,6.42
2019-01-29T16:38:14.218Z,6.22
2019-01-29T16:40:43.445Z,3.05
2019-01-29T16:43:13.309Z,6.12
2019-01-29T16:45:41.613Z,4.33
2019-01-29T16:48:10.157Z,4.87
2019-01-29T16:50:38.527Z,7.30
2019-01-29T16:53:07.250Z,4.20
2019-01-29T16:55:35.578Z,2.40
2019-01-29T16:58:04.098Z,1.85
2019-01-29T17:00:35.924Z,2.90
2019-01-29T17:03:04.283Z,4.20
2019-01-29T17:05:32.807Z,4.90
2019-01-29T17:08:01.197Z,2.33
2019-01-29T17:10:32.719Z,2.65
2019-01-29T17:13:01.133Z,4.10
2019-01-29T17:15:31.205Z,5.45
2019-01-29T17:18:00.104Z,24.55
2019-01-29T17:20:29.655Z,4.15
2019-01-29T17:22:57.996Z,20.77
2019-01-29T17:25:26.375Z,48.38
2019-01-29T17:27:54.755Z,40.88
2019-01-29T17:30:36.068Z,44.58
2019-01-29T17:33:05.656Z,57.08
2019-01-29T17:35:34.253Z,16.32
2019-01-29T17:38:02.623Z,63.65
2019-01-29T17:40:31.248Z,24.55
2019-01-29T17:42:59.749Z,10.18
2019-01-29T17:45:29.679Z,6.53
2019-01-29T17:47:58.619Z,13.88
2019-01-29T17:50:30.168Z,10.82
2019-01-29T17:53:01.701Z,3.42
2019-01-29T17:55:31.931Z,6.90
2019-01-29T17:58:00.257Z,5.40
2019-01-29T18:00:33.912Z,3.65
2019-01-29T18:03:02.283Z,3.62
2019-01-29T18:05:30.659Z,4.70
2019-01-29T18:07:59.007Z,3.33
2019-01-29T18:10:27.309Z,4.10
2019-01-29T18:12:55.630Z,5.80
2019-01-29T18:15:31.782Z,3.72
2019-01-29T18:18:00.082Z,3.08
2019-01-29T18:20:28.422Z,3.67
2019-01-29T18:22:56.767Z,4.53
2019-01-29T18:25:25.070Z,3.90
2019-01-29T18:28:00.874Z,3.00
2019-01-29T18:30:30.120Z,5.40
2019-01-29T18:32:58.454Z,4.80
2019-01-29T18:35:28.334Z,4.15
2019-01-29T18:37:57.220Z,6.78
2019-01-29T18:40:29.879Z,10.58
2019-01-29T18:42:58.219Z,10.72
2019-01-29T18:45:26.567Z,16.12
2019-01-29T18:47:54.914Z,12.13
2019-01-29T18:50:23.245Z,12.90
2019-01-29T18:52:51.706Z,15.50
2019-01-29T18:55:20.097Z,15.63
2019-01-29T18:57:48.443Z,16.15
2019-01-29T19:00:28.425Z,16.27
2019-01-29T19:02:58.359Z,14.05
2019-01-29T19:05:27.675Z,18.35
2019-01-29T19:07:56.236Z,83.20
2019-01-29T19:10:25.584Z,111.28
2019-01-29T19:12:53.894Z,66.95
2019-01-29T19:15:25.541Z,31.45
2019-01-29T19:17:53.881Z,41.98
2019-01-29T19:20:25.306Z,37.33
2019-01-29T19:22:54.624Z,45.30
2019-01-29T19:25:22.990Z,36.27
2019-01-29T19:27:51.330Z,39.92
2019-01-29T19:30:29.735Z,48.08
2019-01-29T19:32:58.092Z,42.17
2019-01-29T19:35:26.500Z,33.92
2019-01-29T19:37:54.867Z,38.42
2019-01-29T19:40:23.461Z,39.78
2019-01-29T19:42:51.810Z,25.45
2019-01-29T19:45:20.975Z,35.30
2019-01-29T19:47:49.361Z,31.77
2019-01-29T19:50:19.305Z,34.50
2019-01-29T19:52:47.989Z,35.17
2019-01-29T19:55:16.314Z,36.45
2019-01-29T19:57:44.690Z,32.35
2019-01-29T20:00:15.530Z,33.77
2019-01-29T20:02:43.890Z,35.50
2019-01-29T20:05:12.220Z,31.10
2019-01-29T20:07:40.563Z,27.90
2019-01-29T20:10:11.795Z,27.80
2019-01-29T20:12:42.394Z,26.42
2019-01-29T20:15:11.750Z,31.15
2019-01-29T20:17:40.185Z,25.75
2019-01-29T20:20:10.090Z,20.75
2019-01-29T20:22:39.853Z,23.70
2019-01-29T20:25:08.769Z,21.27
2019-01-29T20:27:37.136Z,21.73
2019-01-29T20:30:07.056Z,20.32
2019-01-29T20:32:35.418Z,18.07
2019-01-29T20:35:04.689Z,19.77
2019-01-29T20:37:33.006Z,18.07
2019-01-29T20:40:01.652Z,19.90
2019-01-29T20:42:30.183Z,22.87
2019-01-29T20:44:58.485Z,12.85
2019-01-29T20:47:26.826Z,16.42
2019-01-29T20:49:56.184Z,14.28
2019-01-29T20:52:24.489Z,10.48
2019-01-29T20:54:52.829Z,6.83
2019-01-29T20:57:21.227Z,6.83
2019-01-29T20:59:51.462Z,4.67
2019-01-29T21:02:19.785Z,7.17
2019-01-29T21:04:48.124Z,9.55
2019-01-29T21:07:16.432Z,9.18
2019-01-29T21:09:44.777Z,18.20
2019-01-29T21:12:14.646Z,7.85
2019-01-29T21:14:45.030Z,14.03
2019-01-29T21:17:14.415Z,7.93
2019-01-29T21:19:44.642Z,7.20
2019-01-29T21:22:12.980Z,5.73
2019-01-29T21:24:41.363Z,7.85
2019-01-29T21:27:10.616Z,7.80
2019-01-29T21:29:38.945Z,9.05
2019-01-29T21:32:08.848Z,4.83
2019-01-29T21:34:37.166Z,7.83
2019-01-29T21:37:05.519Z,5.53
2019-01-29T21:39:33.855Z,6.65
2019-01-29T21:42:02.149Z,6.33
2019-01-29T21:44:30.483Z,5.35
2019-01-29T21:46:58.848Z,1.87
2019-01-29T21:49:27.192Z,11.15
2019-01-29T21:51:55.535Z,11.60
2019-01-29T22:25:53.187Z,1.40
2019-01-29T22:28:21.523Z,8.23
2019-01-29T22:30:49.848Z,2.65
2019-01-29T22:33:18.225Z,5.93
2019-01-29T22:35:46.548Z,6.62
2019-01-29T22:38:14.869Z,5.57
2019-01-29T22:40:43.221Z,6.47
2019-01-29T22:43:11.545Z,3.67
2019-01-29T22:45:39.894Z,3.95
2019-01-29T22:48:08.262Z,6.90
2019-01-29T22:50:37.571Z,5.95
2019-01-29T22:53:05.923Z,3.77
2019-01-29T22:55:34.224Z,3.15
2019-01-29T22:58:02.563Z,4.22
2019-01-29T23:00:51.813Z,4.40
2019-01-29T23:03:24.264Z,3.83
2019-01-29T23:05:54.121Z,3.15
2019-01-29T23:08:22.454Z,1.77
2019-01-29T23:10:52.600Z,6.47
2019-01-29T23:13:20.861Z,7.30
2019-01-29T23:15:49.194Z,8.40
2019-01-29T23:18:17.517Z,5.70
2019-01-29T23:20:45.851Z,6.95
2019-01-29T23:23:14.218Z,13.60
2019-01-29T23:25:42.642Z,10.70
2019-01-29T23:28:10.958Z,5.17
2019-01-29T23:30:39.290Z,12.23
2019-01-29T23:33:07.617Z,12.10
2019-01-29T23:35:36.040Z,9.78
2019-01-29T23:38:04.691Z,12.07
2019-01-29T23:40:33.014Z,11.43
2019-01-29T23:43:01.335Z,7.75
2019-01-29T23:45:29.694Z,15.75
2019-01-29T23:48:01.070Z,6.55
2019-01-29T23:50:29.826Z,9.78
2019-01-29T23:52:58.151Z,19.15
2019-01-29T23:55:26.480Z,8.60
2019-01-29T23:57:54.820Z,7.78
